createdAt,value
2023-05-17T00:01:51.720Z,9.03
2023-05-17T00:04:20.023Z,10.90
2023-05-17T00:06:48.399Z,6.27
2023-05-17T00:09:16.682Z,10.73
2023-05-17T00:11:44.982Z,7.83
2023-05-17T00:14:13.368Z,13.90
2023-05-17T00:16:43.059Z,11.97
2023-05-17T00:19:11.462Z,10.80
2023-05-17T00:21:39.798Z,9.30
2023-05-17T00:24:09.283Z,14.00
2023-05-17T00:26:37.648Z,9.67
2023-05-17T00:29:06.111Z,12.17
2023-05-17T00:31:34.422Z,9.43
2023-05-17T00:34:04.016Z,12.03
2023-05-17T00:36:32.487Z,8.80
2023-05-17T00:39:00.836Z,12.03
2023-05-17T00:41:29.065Z,16.90
2023-05-17T00:43:57.316Z,14.73
2023-05-17T00:46:25.668Z,11.10
2023-05-17T00:48:54.000Z,11.57
2023-05-17T00:51:24.541Z,12.70
2023-05-17T00:53:52.984Z,8.87
2023-05-17T00:56:21.288Z,12.40
2023-05-17T00:58:49.838Z,7.87
2023-05-17T01:01:18.116Z,13.87
2023-05-17T01:03:47.046Z,12.87
2023-05-17T01:06:15.629Z,11.73
2023-05-17T01:08:46.150Z,13.77
2023-05-17T01:11:20.498Z,14.07
2023-05-17T01:13:53.996Z,10.67
2023-05-17T01:16:24.747Z,12.20
2023-05-17T01:18:58.592Z,11.93
2023-05-17T01:21:32.638Z,11.83
2023-05-17T01:24:12.052Z,13.87
2023-05-17T01:26:44.097Z,12.30
2023-05-17T01:29:13.267Z,13.40
2023-05-17T01:31:41.808Z,16.50
2023-05-17T01:34:10.419Z,10.27
2023-05-17T01:36:38.753Z,10.87
2023-05-17T01:39:08.554Z,10.50
2023-05-17T01:41:39.341Z,11.67
2023-05-17T01:44:14.459Z,13.87
2023-05-17T01:46:43.867Z,11.50
2023-05-17T01:49:14.007Z,19.67
2023-05-17T01:51:46.847Z,13.57
2023-05-17T01:54:15.851Z,13.20
2023-05-17T01:56:45.252Z,12.03
2023-05-17T01:59:17.409Z,12.33
2023-05-17T02:01:45.938Z,11.77
2023-05-17T02:04:14.268Z,14.53
2023-05-17T02:06:42.581Z,14.07
2023-05-17T02:09:10.848Z,14.30
2023-05-17T02:11:39.117Z,14.53
2023-05-17T02:14:07.425Z,15.33
2023-05-17T02:16:37.042Z,11.47
2023-05-17T02:19:05.286Z,14.07
2023-05-17T02:21:33.539Z,13.93
2023-05-17T02:24:01.850Z,16.37
2023-05-17T02:26:30.090Z,14.87
2023-05-17T02:28:58.390Z,15.93
2023-05-17T02:31:27.687Z,18.07
2023-05-17T02:33:57.428Z,16.43
2023-05-17T02:36:25.741Z,14.33
2023-05-17T02:38:53.997Z,14.50
2023-05-17T02:41:22.368Z,12.30
2023-05-17T02:43:50.642Z,11.93
2023-05-17T02:46:18.926Z,17.20
2023-05-17T02:48:47.185Z,14.30
2023-05-17T02:51:16.824Z,12.10
2023-05-17T02:53:45.080Z,10.90
2023-05-17T02:56:13.461Z,15.17
2023-05-17T02:58:41.722Z,19.03
2023-05-17T03:01:10.322Z,16.03
2023-05-17T03:03:38.888Z,13.70
2023-05-17T03:06:07.436Z,14.03
2023-05-17T03:08:37.076Z,13.07
2023-05-17T03:11:05.925Z,18.03
2023-05-17T03:13:34.156Z,15.03
2023-05-17T03:16:02.456Z,15.83
2023-05-17T03:18:30.846Z,16.83
2023-05-17T03:20:59.199Z,16.47
2023-05-17T03:23:27.441Z,12.17
2023-05-17T03:25:57.071Z,15.93
2023-05-17T03:28:25.377Z,11.90
2023-05-17T03:30:53.745Z,12.70
2023-05-17T03:33:22.258Z,20.27
2023-05-17T03:35:50.731Z,12.67
2023-05-17T03:38:19.076Z,12.33
2023-05-17T03:40:47.468Z,17.77
2023-05-17T03:43:17.054Z,13.93
2023-05-17T03:45:45.280Z,14.60
2023-05-17T03:48:13.616Z,17.70
2023-05-17T03:50:41.991Z,14.30
2023-05-17T03:53:11.031Z,13.90
2023-05-17T03:55:39.497Z,18.73
2023-05-17T03:58:08.494Z,12.83
2023-05-17T04:00:38.164Z,12.13
2023-05-17T04:03:06.535Z,12.33
2023-05-17T04:05:42.077Z,16.70
2023-05-17T04:08:10.354Z,13.63
2023-05-17T04:10:42.036Z,15.33
2023-05-17T04:13:10.463Z,9.50
2023-05-17T04:15:40.085Z,14.93
2023-05-17T04:18:08.446Z,15.43
2023-05-17T04:20:36.756Z,12.93
2023-05-17T04:23:05.031Z,10.77
2023-05-17T04:25:33.327Z,11.03
2023-05-17T04:28:01.663Z,12.03
2023-05-17T04:30:29.918Z,14.43
2023-05-17T04:33:00.115Z,14.10
2023-05-17T04:35:28.722Z,15.00
2023-05-17T04:37:57.072Z,10.37
2023-05-17T04:40:25.819Z,16.00
2023-05-17T04:42:54.102Z,13.07
2023-05-17T04:45:22.411Z,16.17
2023-05-17T04:47:52.777Z,16.53
2023-05-17T04:50:22.491Z,14.33
2023-05-17T04:52:51.535Z,18.17
2023-05-17T04:55:19.965Z,13.37
2023-05-17T04:57:48.470Z,18.10
2023-05-17T05:00:17.279Z,14.83
2023-05-17T05:02:46.613Z,15.03
2023-05-17T05:05:15.009Z,16.13
2023-05-17T05:07:58.275Z,19.90
2023-05-17T05:10:28.629Z,16.50
2023-05-17T05:12:58.103Z,13.53
2023-05-17T05:15:26.593Z,11.90
2023-05-17T05:17:55.153Z,20.67
2023-05-17T05:20:25.225Z,19.73
2023-05-17T05:22:54.705Z,15.80
2023-05-17T05:25:23.029Z,14.17
2023-05-17T05:27:52.724Z,15.20
2023-05-17T05:30:22.918Z,14.90
2023-05-17T05:32:51.396Z,13.30
2023-05-17T05:35:20.125Z,13.97
2023-05-17T05:37:48.432Z,19.80
2023-05-17T05:40:16.840Z,14.13
2023-05-17T05:42:45.172Z,18.10
2023-05-17T05:45:14.990Z,13.77
2023-05-17T05:47:43.300Z,17.50
2023-05-17T05:50:12.041Z,10.20
2023-05-17T05:52:40.289Z,11.30
2023-05-17T05:55:09.013Z,11.60
2023-05-17T05:57:37.372Z,12.37
2023-05-17T06:00:05.976Z,13.87
2023-05-17T06:02:36.100Z,13.00
2023-05-17T06:05:04.510Z,10.57
2023-05-17T06:07:32.799Z,10.03
2023-05-17T06:10:01.093Z,8.90
2023-05-17T06:12:29.377Z,12.97
2023-05-17T06:14:57.618Z,14.97
2023-05-17T06:17:25.962Z,11.73
2023-05-17T06:19:55.761Z,13.03
2023-05-17T06:22:24.056Z,14.60
2023-05-17T06:24:52.337Z,13.73
2023-05-17T06:27:20.626Z,10.83
2023-05-17T06:29:48.888Z,12.70
2023-05-17T06:32:17.114Z,9.00
2023-05-17T06:34:45.328Z,12.47
2023-05-17T06:37:14.974Z,12.30
2023-05-17T06:39:51.519Z,8.70
2023-05-17T06:42:28.093Z,10.50
2023-05-17T06:44:56.514Z,10.20
2023-05-17T06:47:24.878Z,10.23
2023-05-17T06:49:53.208Z,10.37
2023-05-17T07:35:53.659Z,10.53
2023-05-17T07:38:23.737Z,9.77
2023-05-17T07:40:52.115Z,10.67
2023-05-17T07:43:20.516Z,14.83
2023-05-17T07:45:48.819Z,9.47
2023-05-17T07:48:17.270Z,12.77
2023-05-17T07:50:46.667Z,9.83
2023-05-17T07:53:14.970Z,10.87
2023-05-17T07:55:46.734Z,10.50
2023-05-17T07:58:14.995Z,9.07
2023-05-17T08:00:43.478Z,9.67
2023-05-17T08:03:11.914Z,11.73
2023-05-17T08:05:42.108Z,11.80
2023-05-17T08:08:10.533Z,7.70
2023-05-17T08:10:39.457Z,8.87
2023-05-17T08:13:09.205Z,8.67
2023-05-17T08:15:37.467Z,7.47
2023-05-17T08:18:06.035Z,8.57
2023-05-17T08:20:34.397Z,9.50
2023-05-17T08:23:02.760Z,7.83
2023-05-17T08:25:31.364Z,9.07
2023-05-17T08:27:59.759Z,8.63
2023-05-17T08:30:29.621Z,11.33
2023-05-17T08:32:58.078Z,6.53
2023-05-17T08:35:28.935Z,6.53
2023-05-17T08:37:57.496Z,6.20
2023-05-17T08:40:25.889Z,7.63
2023-05-17T08:42:54.371Z,8.90
2023-05-17T08:45:23.109Z,6.63
2023-05-17T08:47:54.380Z,8.43
2023-05-17T08:50:22.745Z,6.30
2023-05-17T08:52:51.611Z,7.03
2023-05-17T08:55:20.291Z,7.67
2023-05-17T08:57:49.536Z,8.67
2023-05-17T09:00:19.645Z,7.10
2023-05-17T09:02:48.602Z,7.47
2023-05-17T09:05:18.524Z,6.73
2023-05-17T09:07:49.405Z,9.83
2023-05-17T09:10:17.715Z,9.57
2023-05-17T09:12:46.130Z,7.00
2023-05-17T09:15:15.899Z,9.80
2023-05-17T09:17:44.409Z,8.77
2023-05-17T09:20:13.426Z,5.27
2023-05-17T09:22:44.211Z,11.67
2023-05-17T09:25:12.468Z,5.70
2023-05-17T09:27:41.404Z,7.10
2023-05-17T09:30:12.200Z,6.57
2023-05-17T09:32:46.099Z,4.33
2023-05-17T09:35:15.020Z,6.90
2023-05-17T09:37:45.969Z,5.87
2023-05-17T09:40:23.880Z,8.57
2023-05-17T09:42:52.171Z,6.47
2023-05-17T09:45:23.806Z,8.33
2023-05-17T09:47:53.578Z,5.70
2023-05-17T09:50:25.365Z,7.10
2023-05-17T09:52:56.110Z,5.37
2023-05-17T09:55:28.054Z,7.67
2023-05-17T09:58:04.320Z,5.47
2023-05-17T10:00:33.984Z,6.27
2023-05-17T10:03:03.336Z,4.73
2023-05-17T10:05:32.192Z,5.33
2023-05-17T10:08:01.958Z,8.13
2023-05-17T10:10:30.562Z,7.80
2023-05-17T10:12:59.077Z,6.70
2023-05-17T10:15:27.763Z,7.60
2023-05-17T10:17:56.318Z,5.60
2023-05-17T10:20:24.635Z,7.93
2023-05-17T10:22:52.986Z,8.47
2023-05-17T10:25:23.400Z,6.63
2023-05-17T10:27:52.521Z,12.43
2023-05-17T10:30:21.627Z,6.30
2023-05-17T10:32:50.723Z,4.53
2023-05-17T10:35:19.546Z,6.77
2023-05-17T10:37:47.867Z,6.10
2023-05-17T10:40:17.511Z,7.13
2023-05-17T10:42:50.822Z,6.37
2023-05-17T10:45:22.062Z,6.10
2023-05-17T10:47:52.651Z,10.15
2023-05-17T10:50:23.682Z,8.20
2023-05-17T10:52:53.123Z,7.57
2023-05-17T10:55:22.134Z,9.45
2023-05-17T10:58:16.566Z,8.80
2023-05-17T11:00:45.464Z,4.03
2023-05-17T11:03:14.642Z,7.50
2023-05-17T11:05:47.777Z,5.60
2023-05-17T11:08:17.289Z,11.93
2023-05-17T11:11:04.308Z,9.13
2023-05-17T11:13:33.922Z,6.17
2023-05-17T11:16:06.235Z,6.20
2023-05-17T11:18:47.946Z,8.77
2023-05-17T11:21:17.147Z,10.73
2023-05-17T11:23:46.162Z,6.60
2023-05-17T11:26:17.075Z,8.13
2023-05-17T11:28:46.700Z,13.00
2023-05-17T11:34:36.595Z,6.00
2023-05-17T11:37:06.130Z,8.37
2023-05-17T11:39:34.482Z,11.03
2023-05-17T11:42:02.946Z,9.02
2023-05-17T11:44:33.138Z,6.72
2023-05-17T11:47:04.875Z,12.95
2023-05-17T11:49:36.133Z,8.00
2023-05-17T11:52:06.141Z,8.00
2023-05-17T11:54:34.911Z,7.15
2023-05-17T11:57:04.176Z,9.35
2023-05-17T11:59:39.697Z,7.57
2023-05-17T12:02:08.050Z,10.52
2023-05-17T12:04:37.784Z,9.50
2023-05-17T12:07:06.554Z,10.27
2023-05-17T12:09:34.863Z,13.70
2023-05-17T12:12:04.988Z,8.53
2023-05-17T12:14:34.591Z,11.87
2023-05-17T12:17:04.810Z,7.30
2023-05-17T12:19:33.419Z,10.20
2023-05-17T12:22:08.526Z,8.60
2023-05-17T12:24:40.089Z,6.50
2023-05-17T12:27:08.615Z,8.87
2023-05-17T12:29:38.257Z,13.17
2023-05-17T12:32:07.884Z,10.10
2023-05-17T12:34:36.533Z,8.77
2023-05-17T12:37:06.542Z,8.33
2023-05-17T12:39:34.834Z,7.37
2023-05-17T12:42:03.094Z,9.07
2023-05-17T12:44:31.417Z,11.23
2023-05-17T12:47:03.806Z,9.93
2023-05-17T12:49:32.096Z,7.72
2023-05-17T12:52:05.327Z,10.25
2023-05-17T12:54:35.056Z,6.25
2023-05-17T12:57:12.730Z,8.67
2023-05-17T12:59:48.747Z,9.43
2023-05-17T13:02:18.723Z,6.43
2023-05-17T13:04:47.488Z,6.78
2023-05-17T13:07:22.675Z,4.72
2023-05-17T13:09:51.156Z,6.10
2023-05-17T13:12:22.758Z,7.25
2023-05-17T13:14:53.083Z,7.75
2023-05-17T13:17:26.221Z,7.72
2023-05-17T13:19:54.657Z,8.80
2023-05-17T13:22:24.986Z,9.15
2023-05-17T13:24:53.238Z,9.30
2023-05-17T13:27:21.517Z,5.43
2023-05-17T13:29:49.774Z,8.93
2023-05-17T13:32:19.057Z,11.05
2023-05-17T13:34:48.654Z,9.57
2023-05-17T13:37:16.959Z,10.05
2023-05-17T13:39:45.206Z,6.32
2023-05-17T13:42:14.313Z,10.95
2023-05-17T13:44:42.733Z,8.93
2023-05-17T13:47:11.089Z,6.03
2023-05-17T13:49:39.368Z,6.35
2023-05-17T13:52:09.528Z,6.60
2023-05-17T13:54:38.197Z,6.97
2023-05-17T13:57:07.447Z,10.35
2023-05-17T13:59:35.931Z,8.43
2023-05-17T14:02:18.460Z,7.05
2023-05-17T14:04:46.748Z,9.65
2023-05-17T14:07:16.412Z,8.73
2023-05-17T14:09:44.689Z,8.18
2023-05-17T14:12:13.063Z,11.70
2023-05-17T14:14:41.607Z,8.15
2023-05-17T14:17:09.922Z,9.82
2023-05-17T14:19:38.314Z,8.82
2023-05-17T14:22:13.896Z,7.18
2023-05-17T14:24:44.367Z,7.15
2023-05-17T14:27:15.747Z,14.32
2023-05-17T14:29:46.785Z,5.72
2023-05-17T14:32:15.816Z,8.85
2023-05-17T14:34:44.397Z,7.28
2023-05-17T14:37:14.116Z,8.23
2023-05-17T14:39:52.274Z,6.33
2023-05-17T14:42:32.576Z,5.70
2023-05-17T14:45:01.291Z,7.33
2023-05-17T14:47:30.166Z,7.37
2023-05-17T14:49:58.808Z,7.33
2023-05-17T14:52:27.085Z,6.43
2023-05-17T14:54:56.824Z,7.63
2023-05-17T14:57:25.232Z,6.20
2023-05-17T14:59:53.735Z,5.43
2023-05-17T15:02:22.388Z,6.57
2023-05-17T15:04:51.499Z,6.47
2023-05-17T15:07:19.980Z,7.73
2023-05-17T15:09:48.385Z,7.22
2023-05-17T15:12:17.985Z,7.30
2023-05-17T15:14:46.620Z,6.53
2023-05-17T15:17:15.064Z,5.40
2023-05-17T15:19:43.671Z,7.37
2023-05-17T15:22:12.171Z,9.43
2023-05-17T15:24:40.620Z,8.15
2023-05-17T15:27:08.908Z,8.25
2023-05-17T15:29:40.734Z,5.25
2023-05-17T15:32:09.547Z,4.38
2023-05-17T15:34:37.878Z,6.25
2023-05-17T15:37:06.764Z,6.40
2023-05-17T15:39:35.147Z,4.72
2023-05-17T15:42:03.419Z,4.30
2023-05-17T15:44:31.691Z,6.28
2023-05-17T15:47:03.307Z,4.55
2023-05-17T15:49:32.077Z,11.23
2023-05-17T15:52:00.559Z,9.48
2023-05-17T15:54:28.863Z,5.82
2023-05-17T15:56:57.171Z,8.90
2023-05-17T15:59:25.553Z,6.83
2023-05-17T16:01:53.981Z,6.23
2023-05-17T16:04:23.795Z,7.97
2023-05-17T16:06:52.171Z,6.40
2023-05-17T16:09:20.766Z,9.23
2023-05-17T16:11:49.067Z,7.37
2023-05-17T16:14:17.548Z,8.60
2023-05-17T16:16:45.912Z,7.13
2023-05-17T16:19:14.293Z,6.03
2023-05-17T16:21:44.563Z,7.67
2023-05-17T16:24:12.978Z,7.60
2023-05-17T16:26:41.330Z,4.77
2023-05-17T16:29:09.653Z,8.30
2023-05-17T16:31:38.030Z,9.30
2023-05-17T16:34:06.404Z,15.73
2023-05-17T16:36:37.934Z,8.03
2023-05-17T16:39:07.749Z,8.57
2023-05-17T16:41:35.997Z,7.47
2023-05-17T16:44:04.329Z,4.73
2023-05-17T16:46:32.847Z,5.43
2023-05-17T16:49:01.247Z,9.10
2023-05-17T16:51:29.580Z,9.67
2023-05-17T16:53:57.879Z,7.40
2023-05-17T16:56:27.764Z,5.27
2023-05-17T16:58:56.186Z,9.83
2023-05-17T17:01:24.564Z,9.27
2023-05-17T17:03:52.985Z,4.53
2023-05-17T17:06:21.328Z,8.90
2023-05-17T17:08:49.707Z,6.57
2023-05-17T17:11:20.076Z,5.03
2023-05-17T17:13:50.070Z,6.50
2023-05-17T17:16:18.508Z,6.40
2023-05-17T17:18:47.554Z,6.73
2023-05-17T17:21:15.932Z,7.40
2023-05-17T17:23:44.417Z,7.00
2023-05-17T17:26:12.810Z,5.00
2023-05-17T17:28:41.443Z,5.97
2023-05-17T17:31:11.274Z,4.77
2023-05-17T17:33:39.616Z,8.10
2023-05-17T17:36:09.233Z,7.60
2023-05-17T17:38:39.643Z,8.20
2023-05-17T17:41:13.162Z,7.07
2023-05-17T17:43:42.686Z,7.10
2023-05-17T17:46:12.561Z,5.70
2023-05-17T17:48:40.984Z,6.60
2023-05-17T17:51:09.626Z,6.90
2023-05-17T17:53:39.298Z,5.63
2023-05-17T17:56:08.281Z,6.23
2023-05-17T17:58:36.625Z,6.27
2023-05-17T18:01:05.046Z,8.93
2023-05-17T18:03:35.131Z,6.20
2023-05-17T18:06:04.604Z,7.83
2023-05-17T18:08:32.905Z,9.20
2023-05-17T18:11:02.378Z,6.73
2023-05-17T18:13:30.963Z,9.97
2023-05-17T18:15:59.790Z,10.30
2023-05-17T18:18:28.113Z,5.63
2023-05-17T18:20:57.782Z,5.37
2023-05-17T18:23:26.100Z,8.97
2023-05-17T18:25:54.353Z,8.30
2023-05-17T18:28:41.355Z,8.57
2023-05-17T18:31:11.470Z,7.77
2023-05-17T18:33:39.816Z,7.93
2023-05-17T18:36:09.723Z,5.90
2023-05-17T18:38:38.016Z,7.80
2023-05-17T18:41:06.571Z,5.67
2023-05-17T18:43:34.902Z,8.83
2023-05-17T18:46:03.208Z,11.43
2023-05-17T18:48:35.922Z,7.37
2023-05-17T18:51:04.276Z,8.67
2023-05-17T18:53:34.343Z,7.93
2023-05-17T18:56:02.787Z,5.33
2023-05-17T18:58:31.215Z,5.60
2023-05-17T19:01:01.538Z,7.13
2023-05-17T19:03:29.952Z,6.80
2023-05-17T19:05:58.274Z,6.20
2023-05-17T19:08:26.527Z,9.20
2023-05-17T19:10:56.488Z,8.97
2023-05-17T19:13:27.114Z,7.57
2023-05-17T19:15:55.417Z,9.43
2023-05-17T19:18:23.773Z,11.57
2023-05-17T19:20:52.193Z,7.17
2023-05-17T19:23:21.346Z,10.73
2023-05-17T19:25:49.668Z,9.57
2023-05-17T19:28:19.606Z,12.13
2023-05-17T19:30:47.960Z,6.03
2023-05-17T19:33:16.532Z,9.70
2023-05-17T19:35:44.848Z,8.57
2023-05-17T19:38:13.172Z,8.57
2023-05-17T19:40:41.559Z,6.93
2023-05-17T19:43:09.853Z,10.20
2023-05-17T19:45:41.569Z,8.67
2023-05-17T19:48:12.141Z,7.43
2023-05-17T19:50:40.588Z,9.63
2023-05-17T19:53:09.038Z,9.70
2023-05-17T19:55:39.421Z,11.50
2023-05-17T19:58:07.722Z,8.50
2023-05-17T20:00:37.449Z,4.43
2023-05-17T20:03:07.324Z,10.57
2023-05-17T20:05:35.725Z,7.67
2023-05-17T20:08:06.480Z,8.43
2023-05-17T20:10:34.757Z,9.60
2023-05-17T20:13:03.005Z,7.73
2023-05-17T20:15:31.375Z,7.87
2023-05-17T20:17:59.692Z,12.73
2023-05-17T20:20:29.601Z,9.07
2023-05-17T20:22:58.098Z,9.07
2023-05-17T20:25:26.410Z,7.30
2023-05-17T20:27:54.705Z,8.50
2023-05-17T20:30:23.090Z,7.77
2023-05-17T20:32:51.394Z,8.50
2023-05-17T20:35:19.779Z,7.00
2023-05-17T20:37:49.398Z,7.03
2023-05-17T20:40:17.763Z,10.03
2023-05-17T20:42:46.338Z,7.37
2023-05-17T20:45:17.697Z,7.50
2023-05-17T20:47:46.140Z,9.67
2023-05-17T20:50:17.408Z,12.03
2023-05-17T20:52:46.388Z,7.13
2023-05-17T20:55:15.975Z,7.10
2023-05-17T20:57:44.227Z,9.00
2023-05-17T21:00:15.891Z,5.57
2023-05-17T21:02:44.199Z,6.63
2023-05-17T21:05:12.647Z,5.97
2023-05-17T21:07:40.958Z,6.10
2023-05-17T21:10:09.826Z,7.43
2023-05-17T21:12:39.455Z,7.33
2023-05-17T21:15:17.143Z,7.10
2023-05-17T21:17:45.911Z,7.33
2023-05-17T21:20:14.761Z,6.13
2023-05-17T21:22:43.032Z,7.97
2023-05-17T21:25:11.752Z,4.97
2023-05-17T21:27:41.362Z,6.00
2023-05-17T21:30:10.215Z,7.53
2023-05-17T21:32:38.587Z,7.80
2023-05-17T21:35:07.324Z,6.83
2023-05-17T21:37:37.025Z,7.43
2023-05-17T21:40:05.549Z,5.00
2023-05-17T21:42:34.446Z,7.70
2023-05-17T21:45:04.059Z,10.27
2023-05-17T21:47:32.320Z,6.33
2023-05-17T21:50:00.832Z,5.77
2023-05-17T21:52:29.307Z,9.93
2023-05-17T21:54:57.809Z,7.27
2023-05-17T21:57:26.071Z,6.17
2023-05-17T21:59:54.365Z,5.73
2023-05-17T22:02:24.195Z,8.37
2023-05-17T22:04:52.509Z,6.70
2023-05-17T22:07:21.013Z,4.83
2023-05-17T22:09:49.338Z,7.33
2023-05-17T22:12:25.208Z,9.93
2023-05-17T22:14:54.218Z,5.33
2023-05-17T22:17:29.514Z,7.87
2023-05-17T22:20:04.395Z,6.90
2023-05-17T22:22:32.927Z,6.70
2023-05-17T22:25:01.581Z,4.93
2023-05-17T22:27:29.822Z,7.37
2023-05-17T22:29:58.251Z,6.33
2023-05-17T22:32:27.953Z,9.27
2023-05-17T22:34:57.152Z,6.13
2023-05-17T22:37:25.547Z,5.10
2023-05-17T22:39:53.826Z,6.17
2023-05-17T22:42:22.062Z,7.10
2023-05-17T22:44:50.378Z,6.20
2023-05-17T22:47:22.704Z,6.57
2023-05-17T22:49:52.821Z,8.03
2023-05-17T22:52:21.802Z,6.57
2023-05-17T22:54:50.112Z,7.97
2023-05-17T22:57:18.405Z,5.67
2023-05-17T22:59:46.872Z,7.23
2023-05-17T23:02:15.198Z,5.83
2023-05-17T23:04:45.923Z,11.83
2023-05-17T23:07:16.408Z,7.17
2023-05-17T23:09:44.736Z,9.27
2023-05-17T23:12:14.464Z,5.90
2023-05-17T23:14:43.240Z,5.60
2023-05-17T23:17:11.714Z,8.53
2023-05-17T23:19:40.583Z,6.53
2023-05-17T23:22:10.682Z,6.70
2023-05-17T23:24:40.423Z,7.67
2023-05-17T23:27:09.945Z,9.83
2023-05-17T23:29:41.331Z,9.53
2023-05-17T23:32:09.678Z,10.00
2023-05-17T23:34:37.931Z,5.00
2023-05-17T23:37:06.663Z,9.60
2023-05-17T23:39:34.976Z,6.57
2023-05-17T23:42:04.870Z,6.60
2023-05-17T23:44:35.834Z,7.20
2023-05-17T23:47:04.319Z,6.57
2023-05-17T23:49:32.548Z,6.57
2023-05-17T23:52:01.962Z,6.00
2023-05-17T23:54:30.295Z,7.33
2023-05-17T23:56:58.592Z,8.30
2023-05-17T23:59:29.475Z,8.40
